Time;durP1;ratioP1;P1;durP2;ratioP2;P2;SDS_P1;SDS_P2;PMS_P1;PMS_P2;Temp;Humidity;BMP_temperature;BMP_pressure;BME280_temperature;BME280_humidity;BME280_pressure;Samples;Min_cycle;Max_cycle;Signal;HPM_P1;HPM_P2
2022/05/08 00:02:13;;;;;;;15.10;13.17;;;12.00;99.90;;;;;;5057788;28;21004;-60
2022/05/08 00:04:39;;;;;;;23.57;12.40;;;12.00;99.90;;;;;;5045265;28;20178;-59
2022/05/08 00:07:05;;;;;;;14.77;11.63;;;12.00;99.90;;;;;;5060003;28;20202;-59
2022/05/08 00:09:31;;;;;;;14.37;11.93;;;12.00;99.90;;;;;;5062011;28;20186;-59
2022/05/08 00:11:56;;;;;;;13.83;12.30;;;12.00;99.90;;;;;;5044823;28;20518;-59
2022/05/08 00:14:22;;;;;;;17.10;11.70;;;12.00;99.90;;;;;;5063634;28;20178;-59
2022/05/08 00:16:48;;;;;;;12.90;10.87;;;12.00;99.90;;;;;;5063147;28;20214;-59
2022/05/08 00:19:13;;;;;;;14.53;11.70;;;12.00;99.90;;;;;;5045233;28;20183;-60
2022/05/08 00:21:39;;;;;;;13.83;11.93;;;12.00;99.90;;;;;;5060650;28;20717;-59
2022/05/08 00:24:05;;;;;;;13.57;12.10;;;11.90;99.90;;;;;;5048257;28;20252;-59
2022/05/08 00:26:31;;;;;;;14.23;11.00;;;11.90;99.90;;;;;;5068261;28;20445;-59
2022/05/08 00:28:57;;;;;;;14.73;11.63;;;11.90;99.90;;;;;;5046076;28;21225;-59
2022/05/08 00:31:24;;;;;;;16.33;12.53;;;11.90;99.90;;;;;;5058444;28;20183;-59
2022/05/08 00:33:50;;;;;;;16.00;12.57;;;11.90;99.90;;;;;;5067682;28;20428;-59
2022/05/08 00:36:16;;;;;;;12.97;11.43;;;11.90;99.90;;;;;;5065115;28;20952;-58
2022/05/08 00:38:41;;;;;;;13.63;12.20;;;11.90;99.90;;;;;;5063735;28;21094;-59
2022/05/08 00:41:08;;;;;;;18.03;13.00;;;11.90;99.90;;;;;;5059945;28;20425;-59
2022/05/08 00:43:39;;;;;;;17.33;13.97;;;11.90;99.90;;;;;;5064469;28;20186;-59
2022/05/08 00:46:06;;;;;;;19.50;13.10;;;11.90;99.90;;;;;;5060969;28;20456;-59
2022/05/08 00:48:33;;;;;;;20.97;13.87;;;11.90;99.90;;;;;;5045969;28;20511;-59
2022/05/08 00:51:00;;;;;;;17.83;14.43;;;11.90;99.90;;;;;;5059514;28;20425;-59
2022/05/08 00:53:30;;;;;;;17.40;13.67;;;11.80;99.90;;;;;;5070484;28;20431;-59
2022/05/08 00:55:56;;;;;;;17.67;13.87;;;11.80;99.90;;;;;;5067455;28;20455;-60
2022/05/08 00:58:22;;;;;;;17.20;13.60;;;11.80;99.90;;;;;;5064746;28;20870;-59
2022/05/08 01:00:48;;;;;;;15.97;12.33;;;11.80;99.90;;;;;;5068498;28;20455;-59
2022/05/08 01:03:14;;;;;;;16.00;12.47;;;11.80;99.90;;;;;;5072097;28;20498;-61
2022/05/08 01:05:43;;;;;;;13.70;11.83;;;11.80;99.90;;;;;;5069105;28;21883;-59
2022/05/08 01:08:12;;;;;;;14.60;11.70;;;11.80;99.90;;;;;;5054208;28;20198;-59
2022/05/08 01:10:38;;;;;;;16.37;12.77;;;11.80;99.90;;;;;;5061776;28;20420;-59
2022/05/08 01:13:05;;;;;;;15.23;12.43;;;11.80;99.90;;;;;;5069231;28;20849;-59
2022/05/08 01:15:42;;;;;;;16.20;11.67;;;11.80;99.90;;;;;;5043591;28;20417;-59
2022/05/08 01:18:08;;;;;;;14.70;11.77;;;11.70;99.90;;;;;;5050569;28;20460;-59
2022/05/08 01:20:34;;;;;;;16.63;12.10;;;11.80;99.90;;;;;;5068009;28;21068;-59
2022/05/08 01:23:05;;;;;;;14.43;11.90;;;11.70;99.90;;;;;;5052980;28;20424;-58
2022/05/08 01:25:31;;;;;;;15.57;12.03;;;11.70;99.90;;;;;;5068832;28;20467;-59
2022/05/08 01:27:56;;;;;;;16.30;12.97;;;11.70;99.90;;;;;;5072585;28;20483;-60
2022/05/08 01:30:22;;;;;;;15.57;12.07;;;11.70;99.90;;;;;;5050593;28;20969;-59
2022/05/08 01:32:48;;;;;;;13.70;11.20;;;11.70;99.90;;;;;;5060005;28;20205;-59
2022/05/08 01:35:14;;;;;;;19.33;12.07;;;11.70;99.90;;;;;;5058029;28;20425;-59
2022/05/08 01:37:40;;;;;;;17.50;11.30;;;11.70;99.90;;;;;;5061845;28;20437;-59
2022/05/08 01:40:07;;;;;;;15.13;11.10;;;11.60;99.90;;;;;;5070081;28;20202;-59
2022/05/08 01:42:33;;;;;;;14.43;11.80;;;11.60;99.90;;;;;;5070266;28;20201;-60
2022/05/08 01:44:59;;;;;;;12.80;11.40;;;11.60;99.90;;;;;;5064023;28;20453;-59
2022/05/08 01:50:09;;;;;;;15.90;11.70;;;11.60;99.90;;;;;;5060090;28;20193;-59
2022/05/08 01:52:35;;;;;;;13.00;11.37;;;11.60;99.90;;;;;;5064664;28;20432;-59
2022/05/08 01:55:01;;;;;;;14.20;11.73;;;11.50;99.90;;;;;;5061195;28;20426;-59
2022/05/08 01:57:27;;;;;;;16.30;12.40;;;11.50;99.90;;;;;;5065947;28;20202;-59
2022/05/08 01:59:53;;;;;;;17.07;12.70;;;11.50;99.90;;;;;;5063039;28;20429;-59
2022/05/08 02:02:19;;;;;;;12.40;10.97;;;11.50;99.90;;;;;;5065470;28;20213;-59
2022/05/08 02:04:45;;;;;;;14.47;11.70;;;11.50;99.90;;;;;;5064681;28;20567;-60
2022/05/08 02:07:11;;;;;;;15.90;12.50;;;11.50;99.90;;;;;;5066808;28;20476;-59
2022/05/08 02:09:37;;;;;;;18.93;12.17;;;11.50;99.90;;;;;;5061741;28;20432;-60
2022/05/08 02:12:04;;;;;;;14.90;11.70;;;11.50;99.90;;;;;;5069030;28;20178;-60
2022/05/08 02:14:30;;;;;;;16.90;12.47;;;11.40;99.90;;;;;;5065595;28;20435;-59
2022/05/08 02:16:55;;;;;;;17.67;10.90;;;11.40;99.90;;;;;;5068506;28;20460;-59
2022/05/08 02:19:22;;;;;;;14.23;11.73;;;11.40;99.90;;;;;;5058975;28;20190;-59
2022/05/08 02:21:47;;;;;;;14.80;12.30;;;11.40;99.90;;;;;;5066567;28;20182;-59
2022/05/08 02:24:13;;;;;;;14.30;11.67;;;11.40;99.90;;;;;;5067306;28;20438;-59
2022/05/08 02:26:39;;;;;;;15.80;11.63;;;11.30;99.90;;;;;;5069303;28;20210;-59
2022/05/08 02:29:04;;;;;;;16.87;11.10;;;11.40;99.90;;;;;;5064867;28;20642;-59
2022/05/08 02:31:30;;;;;;;15.03;11.57;;;11.30;99.90;;;;;;5060710;28;20703;-60
2022/05/08 02:33:57;;;;;;;17.63;12.33;;;11.30;99.90;;;;;;5045867;28;20176;-58
2022/05/08 02:36:22;;;;;;;17.60;11.70;;;11.30;99.90;;;;;;5067953;28;20202;-59
2022/05/08 02:38:48;;;;;;;18.17;12.03;;;11.30;99.90;;;;;;5067436;28;20444;-59
2022/05/08 02:41:14;;;;;;;12.93;10.37;;;11.30;99.90;;;;;;5059429;28;20179;-59
2022/05/08 02:43:39;;;;;;;17.10;11.47;;;11.20;99.90;;;;;;5065464;28;20693;-59
2022/05/08 02:46:05;;;;;;;14.50;10.40;;;11.20;99.90;;;;;;5062220;28;20217;-59
2022/05/08 02:48:31;;;;;;;13.07;10.67;;;11.20;99.90;;;;;;5069500;28;20179;-59
2022/05/08 02:50:57;;;;;;;12.03;9.83;;;11.10;99.90;;;;;;5048357;28;20171;-60
2022/05/08 02:53:23;;;;;;;11.50;10.13;;;11.10;99.90;;;;;;5064595;28;20574;-59
2022/05/08 02:58:32;;;;;;;12.70;10.73;;;11.00;99.90;;;;;;5059587;28;20178;-58
2022/05/08 03:01:02;;;;;;;12.97;11.17;;;10.90;99.90;;;;;;5065711;28;20426;-58
2022/05/08 03:03:28;;;;;;;19.07;11.27;;;10.90;99.90;;;;;;5069271;28;20236;-58
2022/05/08 03:05:54;;;;;;;12.77;10.90;;;10.80;99.90;;;;;;5068300;28;20429;-58
2022/05/08 03:08:20;;;;;;;16.23;11.80;;;10.80;99.90;;;;;;5060748;28;21080;-58
2022/05/08 03:13:37;;;;;;;13.50;11.23;;;10.70;99.90;;;;;;5065077;28;20951;-58
2022/05/08 03:16:04;;;;;;;16.53;11.30;;;10.70;99.90;;;;;;5059872;28;20525;-58
2022/05/08 03:18:30;;;;;;;12.40;10.00;;;10.60;99.90;;;;;;5062328;28;20464;-58
2022/05/08 03:20:56;;;;;;;15.60;11.70;;;10.60;99.90;;;;;;5063544;28;20964;-58
2022/05/08 03:23:22;;;;;;;11.30;10.07;;;10.50;99.90;;;;;;5067192;28;20441;-58
2022/05/08 03:25:48;;;;;;;14.10;10.97;;;10.50;99.90;;;;;;5061433;28;20179;-58
2022/05/08 03:28:15;;;;;;;12.27;9.60;;;10.50;99.90;;;;;;5062488;28;20435;-59
2022/05/08 03:30:42;;;;;;;13.40;10.60;;;10.40;99.90;;;;;;5061567;28;20185;-58
2022/05/08 03:33:09;;;;;;;14.43;11.40;;;10.40;99.90;;;;;;5062487;28;21198;-59
2022/05/08 03:35:35;;;;;;;12.10;10.07;;;10.30;99.90;;;;;;5061668;28;20433;-59
2022/05/08 03:38:01;;;;;;;14.63;10.00;;;10.30;99.90;;;;;;5065666;28;20485;-59
2022/05/08 03:40:27;;;;;;;13.57;9.77;;;10.30;99.90;;;;;;5062079;28;20493;-58
2022/05/08 03:42:56;;;;;;;10.93;9.10;;;10.20;99.90;;;;;;5061923;28;20194;-58
2022/05/08 03:45:21;;;;;;;11.27;8.57;;;10.20;99.90;;;;;;5065388;28;20166;-58
2022/05/08 03:47:50;;;;;;;9.23;8.13;;;10.10;99.90;;;;;;5061383;28;20886;-58
2022/05/08 03:50:17;;;;;;;10.03;9.00;;;10.10;99.90;;;;;;5059301;28;20645;-58
2022/05/08 03:52:42;;;;;;;13.07;9.00;;;10.00;99.90;;;;;;5062962;28;20560;-58
2022/05/08 03:55:08;;;;;;;11.50;9.00;;;10.00;99.90;;;;;;5061964;28;20522;-58
2022/05/08 03:57:34;;;;;;;11.97;9.53;;;9.90;99.90;;;;;;5063532;28;20590;-58
2022/05/08 04:00:00;;;;;;;26.53;9.70;;;9.90;99.90;;;;;;5043150;28;20213;-58
2022/05/08 04:02:26;;;;;;;9.57;8.50;;;9.90;99.90;;;;;;5044421;28;20619;-59
2022/05/08 04:04:51;;;;;;;13.20;9.70;;;9.90;99.90;;;;;;5057681;28;20711;-58
2022/05/08 04:07:17;;;;;;;10.50;9.13;;;9.90;99.90;;;;;;5048230;28;20492;-58
2022/05/08 04:09:42;;;;;;;11.53;9.00;;;9.90;99.90;;;;;;5059666;28;20216;-58
2022/05/08 04:12:08;;;;;;;10.20;9.10;;;9.90;99.90;;;;;;5060365;28;20182;-58
2022/05/08 04:14:34;;;;;;;10.63;9.03;;;9.80;99.90;;;;;;5057408;28;20176;-58
2022/05/08 04:16:59;;;;;;;12.20;9.77;;;9.80;99.90;;;;;;5062334;28;20221;-58
2022/05/08 04:19:25;;;;;;;13.33;9.73;;;9.80;99.90;;;;;;5059772;28;20677;-58
2022/05/08 04:24:16;;;;;;;12.10;10.60;;;9.80;99.90;;;;;;5064601;28;20828;-59
2022/05/08 04:24:36;;;;;;;10.43;9.10;;;9.70;99.90;;;;;;5058847;28;20180;-59
2022/05/08 04:27:02;;;;;;;11.57;9.20;;;9.70;99.90;;;;;;5059790;28;20511;-58
2022/05/08 04:29:28;;;;;;;14.47;10.13;;;9.70;99.90;;;;;;5063773;28;20270;-58
2022/05/08 04:31:53;;;;;;;11.33;9.10;;;9.70;99.90;;;;;;5061391;28;21319;-58
2022/05/08 04:34:19;;;;;;;11.87;9.33;;;9.70;99.90;;;;;;5062923;28;20250;-58
2022/05/08 04:36:44;;;;;;;11.20;9.13;;;9.70;99.90;;;;;;5063954;28;20198;-58
2022/05/08 04:39:10;;;;;;;12.70;9.40;;;9.70;99.90;;;;;;5057615;28;20241;-60
2022/05/08 04:41:35;;;;;;;12.10;8.40;;;9.70;99.90;;;;;;5068247;28;20270;-58
2022/05/08 04:44:01;;;;;;;11.93;9.30;;;9.70;99.90;;;;;;5059233;28;20212;-58
2022/05/08 04:46:28;;;;;;;11.33;9.00;;;9.70;99.90;;;;;;5062650;28;20255;-58
2022/05/08 04:48:53;;;;;;;12.03;9.70;;;9.70;99.90;;;;;;5064376;28;20174;-58
2022/05/08 04:51:19;;;;;;;13.97;9.80;;;9.70;99.90;;;;;;5063079;28;20524;-58
2022/05/08 04:53:44;;;;;;;14.40;9.93;;;9.70;99.90;;;;;;5065702;28;20636;-58
2022/05/08 04:56:10;;;;;;;13.47;9.77;;;9.70;99.90;;;;;;5048471;28;20233;-58
2022/05/08 04:58:36;;;;;;;11.47;8.83;;;9.70;99.90;;;;;;5063603;28;20182;-59
2022/05/08 05:01:02;;;;;;;13.50;9.60;;;9.70;99.90;;;;;;5045541;28;20735;-58
2022/05/08 05:03:27;;;;;;;10.30;8.90;;;9.70;99.90;;;;;;5063202;28;20433;-57
2022/05/08 05:05:53;;;;;;;11.03;9.20;;;9.70;99.90;;;;;;5061027;28;20213;-58
2022/05/08 05:08:20;;;;;;;11.93;8.33;;;9.70;99.90;;;;;;5068505;28;20170;-58
2022/05/08 05:10:47;;;;;;;11.87;9.30;;;9.80;99.90;;;;;;5047265;28;20720;-58
2022/05/08 05:13:13;;;;;;;12.80;8.87;;;9.80;99.90;;;;;;5055495;28;21069;-58
2022/05/08 05:15:39;;;;;;;10.93;9.37;;;9.80;99.90;;;;;;5062350;28;20481;-58
2022/05/08 05:18:05;;;;;;;10.20;9.07;;;9.90;99.90;;;;;;5068060;28;20247;-58
2022/05/08 05:20:30;;;;;;;11.80;9.53;;;9.90;99.90;;;;;;5070038;28;20175;-58
2022/05/08 05:23:02;;;;;;;12.10;9.37;;;10.00;99.90;;;;;;5051369;28;20182;-58
2022/05/08 05:25:29;;;;;;;13.87;8.57;;;10.00;99.90;;;;;;5060497;28;20179;-58
2022/05/08 05:27:55;;;;;;;12.33;8.40;;;10.00;99.90;;;;;;5056904;28;21297;-58
2022/05/08 05:30:21;;;;;;;10.47;9.07;;;10.00;99.90;;;;;;5063936;28;20456;-59
2022/05/08 05:32:46;;;;;;;12.03;9.37;;;10.10;99.90;;;;;;5061791;28;20427;-59
2022/05/08 05:35:12;;;;;;;10.63;8.97;;;10.10;99.90;;;;;;5068302;28;20508;-59
2022/05/08 05:37:39;;;;;;;12.40;9.60;;;10.10;99.90;;;;;;5068093;28;20206;-59
2022/05/08 05:40:08;;;;;;;12.30;8.53;;;10.10;99.90;;;;;;5058680;28;20224;-59
2022/05/08 05:42:34;;;;;;;12.10;9.43;;;10.10;99.90;;;;;;5069213;28;20439;-58
2022/05/08 05:45:00;;;;;;;13.37;10.20;;;10.10;99.90;;;;;;5058128;28;20429;-59
2022/05/08 05:50:10;;;;;;;13.13;9.80;;;10.20;99.90;;;;;;5064728;28;20182;-58
2022/05/08 05:52:36;;;;;;;12.70;10.23;;;10.10;99.90;;;;;;5062443;28;20428;-58
2022/05/08 05:55:04;;;;;;;12.30;10.30;;;10.20;99.90;;;;;;5064519;28;20600;-58
2022/05/08 05:57:30;;;;;;;13.10;11.60;;;10.20;99.90;;;;;;5067572;28;20482;-58
2022/05/08 05:59:56;;;;;;;14.33;10.77;;;10.30;99.90;;;;;;5065819;28;20429;-58
2022/05/08 06:02:22;;;;;;;13.57;10.77;;;10.40;99.90;;;;;;5067459;28;20436;-58
2022/05/08 06:04:47;;;;;;;11.67;9.57;;;10.40;99.90;;;;;;5067764;28;20175;-59
2022/05/08 06:07:13;;;;;;;13.60;9.63;;;10.50;99.90;;;;;;5057520;28;20203;-58
2022/05/08 06:09:39;;;;;;;16.27;10.10;;;10.60;99.90;;;;;;5058907;28;20175;-58
2022/05/08 06:12:05;;;;;;;12.33;9.80;;;10.70;99.90;;;;;;5062545;28;20649;-58
2022/05/08 06:14:31;;;;;;;13.73;9.67;;;10.80;99.90;;;;;;5059477;28;20504;-59
2022/05/08 06:16:57;;;;;;;11.83;9.73;;;10.90;99.90;;;;;;5043624;28;20213;-58
2022/05/08 06:19:23;;;;;;;15.97;10.40;;;11.00;99.90;;;;;;5061298;28;20186;-58
2022/05/08 06:21:49;;;;;;;10.70;9.30;;;11.10;99.90;;;;;;5063651;28;20432;-59
2022/05/08 06:24:15;;;;;;;13.57;9.20;;;11.20;99.90;;;;;;5063575;28;20175;-60
2022/05/08 06:26:40;;;;;;;13.37;9.60;;;11.20;99.90;;;;;;5044204;28;20602;-59
2022/05/08 06:29:06;;;;;;;13.90;10.60;;;11.40;99.90;;;;;;5066200;28;20258;-60
2022/05/08 06:31:31;;;;;;;13.47;9.73;;;11.40;99.90;;;;;;5046015;28;20313;-60
2022/05/08 06:33:57;;;;;;;13.63;9.67;;;11.60;99.90;;;;;;5075556;28;20619;-60
2022/05/08 06:36:24;;;;;;;9.67;8.17;;;11.70;99.90;;;;;;5074607;28;20612;-60
2022/05/08 06:38:49;;;;;;;9.50;7.70;;;11.80;99.90;;;;;;5071833;28;20201;-60
2022/05/08 06:41:15;;;;;;;9.70;7.97;;;12.00;99.90;;;;;;5067212;28;20766;-60
2022/05/08 06:43:41;;;;;;;9.37;7.90;;;12.10;99.90;;;;;;5052736;28;20665;-59
2022/05/08 06:46:08;;;;;;;9.10;7.70;;;12.30;99.90;;;;;;5057535;28;21131;-60
2022/05/08 06:48:34;;;;;;;10.83;7.73;;;12.40;99.90;;;;;;5064440;28;20455;-60
2022/05/08 06:51:00;;;;;;;9.73;7.00;;;12.60;99.90;;;;;;5064563;28;20934;-60
2022/05/08 06:53:27;;;;;;;7.83;7.03;;;12.70;99.90;;;;;;5060275;28;20429;-60
2022/05/08 06:55:53;;;;;;;10.07;7.20;;;12.80;99.90;;;;;;5057580;28;20435;-60
2022/05/08 06:58:20;;;;;;;8.60;7.20;;;12.90;99.90;;;;;;5064852;28;20440;-60
2022/05/08 07:03:31;;;;;;;8.23;7.40;;;13.10;99.90;;;;;;5062400;28;20424;-60
2022/05/08 07:05:57;;;;;;;9.47;7.23;;;13.30;99.90;;;;;;5044377;28;20421;-60
2022/05/08 07:08:23;;;;;;;7.90;7.10;;;13.50;99.90;;;;;;5067996;28;20174;-60
2022/05/08 07:10:49;;;;;;;8.27;7.30;;;13.60;99.90;;;;;;5054986;28;20423;-60
2022/05/08 07:13:15;;;;;;;7.77;6.73;;;13.80;99.90;;;;;;5062151;28;20429;-60
2022/05/08 07:15:41;;;;;;;8.80;7.03;;;13.90;99.90;;;;;;5066160;28;20424;-59
2022/05/08 07:18:07;;;;;;;6.77;6.00;;;14.00;99.90;;;;;;5062505;28;21051;-58
2022/05/08 07:20:33;;;;;;;7.13;6.30;;;14.20;99.90;;;;;;5066321;28;20631;-59
2022/05/08 07:23:00;;;;;;;8.10;7.10;;;14.20;99.90;;;;;;5039978;28;20433;-60
2022/05/08 07:25:26;;;;;;;12.87;6.87;;;14.40;99.90;;;;;;5064744;28;20463;-59
2022/05/08 07:27:52;;;;;;;9.00;7.40;;;14.50;99.40;;;;;;5067763;28;21019;-59
2022/05/08 07:30:18;;;;;;;8.10;7.30;;;14.60;99.20;;;;;;5065120;28;20178;-59
2022/05/08 07:32:44;;;;;;;8.20;6.83;;;14.70;98.80;;;;;;5069401;28;20424;-60
2022/05/08 07:37:55;;;;;;;9.47;6.87;;;14.90;95.40;;;;;;5063246;28;20209;-60
2022/05/08 07:40:21;;;;;;;8.70;7.07;;;15.00;95.20;;;;;;5062760;28;20860;-60
2022/05/08 07:42:46;;;;;;;10.50;6.60;;;15.00;95.90;;;;;;5048555;28;20179;-59
2022/05/08 07:45:12;;;;;;;9.37;8.10;;;15.10;96.50;;;;;;5063782;28;20190;-60
2022/05/08 07:47:39;;;;;;;8.50;7.60;;;15.20;94.50;;;;;;5070019;28;20275;-60
2022/05/08 07:50:06;;;;;;;9.37;7.20;;;15.30;92.50;;;;;;5060870;28;20429;-60
2022/05/08 07:52:39;;;;;;;9.23;7.23;;;15.40;90.60;;;;;;5066936;28;20421;-60
2022/05/08 07:55:06;;;;;;;10.17;7.27;;;15.50;90.60;;;;;;5064211;28;20948;-59
2022/05/08 07:57:31;;;;;;;9.30;7.57;;;15.60;87.00;;;;;;5040848;28;20460;-60
2022/05/08 07:59:57;;;;;;;15.47;7.70;;;15.70;83.10;;;;;;5057669;28;20433;-60
2022/05/08 08:02:23;;;;;;;9.70;7.13;;;15.80;82.30;;;;;;5048170;28;20185;-60
2022/05/08 08:04:48;;;;;;;10.30;7.40;;;16.00;83.20;;;;;;5065150;28;20221;-59
2022/05/08 08:07:14;;;;;;;10.50;7.80;;;16.10;82.30;;;;;;5064552;28;20264;-59
2022/05/08 08:09:40;;;;;;;8.00;6.87;;;16.20;81.50;;;;;;5062532;28;20185;-60
2022/05/08 08:12:06;;;;;;;14.83;6.90;;;16.30;79.30;;;;;;5067607;28;20186;-60
2022/05/08 08:14:32;;;;;;;10.63;7.20;;;16.40;76.40;;;;;;5059195;28;20225;-59
2022/05/08 08:16:57;;;;;;;8.57;7.67;;;16.50;75.90;;;;;;5068664;28;20492;-60
2022/05/08 08:19:23;;;;;;;8.60;7.27;;;16.60;72.40;;;;;;5062417;28;20744;-60
2022/05/08 08:21:49;;;;;;;8.20;7.00;;;16.70;71.00;;;;;;5063801;28;20171;-60
2022/05/08 08:24:15;;;;;;;6.40;5.80;;;16.80;68.90;;;;;;5054597;28;20183;-63
2022/05/08 08:26:41;;;;;;;9.87;6.70;;;16.90;71.00;;;;;;5062078;28;20708;-58
2022/05/08 08:29:08;;;;;;;9.13;7.13;;;17.10;76.30;;;;;;5055988;28;20278;-57
2022/05/08 08:31:33;;;;;;;7.57;6.77;;;17.30;71.40;;;;;;5062361;28;20425;-58
2022/05/08 08:33:59;;;;;;;9.37;7.47;;;17.40;68.60;;;;;;5063943;28;20431;-57
2022/05/08 08:36:25;;;;;;;7.10;6.40;;;17.50;67.30;;;;;;5048404;28;20293;-62
2022/05/08 08:38:50;;;;;;;11.40;7.50;;;17.40;65.80;;;;;;5045850;28;20686;-62
2022/05/08 08:41:21;;;;;;;12.33;6.97;;;17.20;64.70;;;;;;5057440;28;20568;-62
2022/05/08 08:49:22;;;;;;;9.10;7.33;;;17.10;65.20;;;;;;5063955;28;20462;-62
2022/05/08 08:51:49;;;;;;;10.20;8.07;;;17.00;62.90;;;;;;5062649;28;20432;-62
2022/05/08 08:54:22;;;;;;;10.30;7.00;;;17.10;63.50;;;;;;5060839;28;20825;-61
2022/05/08 08:56:48;;;;;;;9.27;7.80;;;17.20;63.60;;;;;;5060958;28;20715;-61
2022/05/08 08:59:14;;;;;;;12.67;8.50;;;17.30;61.20;;;;;;5065503;28;20427;-59
2022/05/08 09:01:44;;;;;;;12.63;7.90;;;17.40;60.70;;;;;;5058888;28;20420;-59
2022/05/08 09:04:10;;;;;;;10.47;7.40;;;17.40;60.00;;;;;;5039327;28;20228;-62
2022/05/08 09:06:45;;;;;;;13.27;7.70;;;17.40;60.30;;;;;;5061802;28;20456;-59
2022/05/08 09:09:26;;;;;;;12.13;7.77;;;17.50;61.00;;;;;;5062417;28;20431;-59
2022/05/08 09:11:56;;;;;;;9.73;7.40;;;17.70;62.20;;;;;;5056058;28;20463;-59
2022/05/08 09:14:35;;;;;;;12.63;8.57;;;17.90;61.10;;;;;;5056559;28;20520;-59
2022/05/08 09:17:04;;;;;;;10.43;7.60;;;18.10;58.90;;;;;;5039702;28;20459;-59
2022/05/08 09:19:37;;;;;;;7.70;6.90;;;18.10;58.10;;;;;;5061904;28;20444;-59
2022/05/08 09:22:07;;;;;;;8.60;6.97;;;18.00;57.40;;;;;;5047640;28;20437;-59
2022/05/08 09:24:35;;;;;;;11.20;7.77;;;18.00;58.20;;;;;;5063003;28;20435;-59
2022/05/08 09:27:11;;;;;;;9.13;6.57;;;17.90;58.50;;;;;;5066056;28;20461;-59
2022/05/08 09:29:37;;;;;;;9.93;7.13;;;17.80;59.10;;;;;;5056889;28;20477;-60
2022/05/08 09:32:03;;;;;;;8.10;6.00;;;17.70;60.00;;;;;;5056448;28;20428;-59
2022/05/08 09:34:29;;;;;;;8.57;7.10;;;17.70;60.80;;;;;;5063446;28;20178;-59
2022/05/08 09:37:07;;;;;;;8.00;6.17;;;17.70;61.10;;;;;;5064218;28;20452;-60
2022/05/08 09:39:33;;;;;;;11.10;7.00;;;17.60;60.60;;;;;;5057577;28;20174;-59
2022/05/08 09:41:58;;;;;;;11.17;7.60;;;17.40;60.20;;;;;;5059670;28;20440;-59
2022/05/08 09:44:24;;;;;;;8.30;6.47;;;17.30;60.60;;;;;;5065809;28;20647;-60
2022/05/08 09:46:49;;;;;;;10.20;7.30;;;17.10;60.90;;;;;;5064749;28;20214;-59
2022/05/08 09:49:24;;;;;;;7.70;6.90;;;17.00;61.40;;;;;;5062332;28;20175;-60
2022/05/08 09:51:51;;;;;;;8.10;6.37;;;16.80;61.40;;;;;;5060619;28;20182;-60
2022/05/08 09:54:18;;;;;;;9.13;7.37;;;16.70;61.30;;;;;;5059146;28;21055;-60
2022/05/08 09:56:45;;;;;;;9.03;6.87;;;16.70;61.60;;;;;;5058502;28;20453;-59
2022/05/08 09:59:12;;;;;;;11.57;7.53;;;16.70;61.80;;;;;;5056021;28;20432;-60
2022/05/08 10:01:39;;;;;;;8.83;7.07;;;16.70;62.30;;;;;;5058013;28;20455;-60
2022/05/08 10:04:05;;;;;;;7.90;7.07;;;16.80;61.90;;;;;;5059260;28;21165;-59
2022/05/08 10:06:33;;;;;;;9.63;6.93;;;16.90;60.90;;;;;;5060277;28;20456;-59
2022/05/08 10:14:33;;;;;;;7.73;6.93;;;16.70;59.80;;;;;;5060057;28;20427;-59
2022/05/08 10:17:05;;;;;;;10.10;7.90;;;16.70;60.00;;;;;;5039737;28;20480;-59
2022/05/08 10:19:31;;;;;;;9.83;6.80;;;16.60;60.00;;;;;;5061966;28;20428;-59
2022/05/08 10:24:39;;;;;;;11.67;7.10;;;16.80;61.50;;;;;;5059327;28;20224;-59
2022/05/08 10:27:14;;;;;;;9.60;7.27;;;17.00;61.50;;;;;;5058707;28;20459;-64
2022/05/08 10:29:49;;;;;;;8.43;7.33;;;17.10;60.70;;;;;;5044994;28;21288;-59
2022/05/08 10:32:33;;;;;;;9.23;7.47;;;17.10;59.70;;;;;;5062936;28;20440;-59
2022/05/08 10:35:19;;;;;;;9.53;7.47;;;17.10;59.50;;;;;;5057165;28;20436;-59
2022/05/08 10:37:47;;;;;;;8.00;6.77;;;17.10;58.90;;;;;;5061813;28;20453;-59
2022/05/08 10:40:22;;;;;;;8.60;7.10;;;17.10;59.30;;;;;;5059924;28;20524;-54
2022/05/08 10:42:48;;;;;;;8.33;7.07;;;17.10;59.80;;;;;;5051887;28;20917;-57
2022/05/08 10:45:37;;;;;;;9.80;8.27;;;17.20;60.40;;;;;;5054197;28;20479;-59
2022/05/08 10:48:11;;;;;;;9.80;7.50;;;17.40;60.80;;;;;;5051813;28;20475;-59
2022/05/08 10:50:38;;;;;;;7.63;6.67;;;17.60;59.60;;;;;;5058606;28;20439;-59
2022/05/08 10:53:07;;;;;;;12.60;8.30;;;17.70;59.20;;;;;;5037641;28;21353;-60
2022/05/08 10:55:33;;;;;;;8.60;7.40;;;17.80;59.60;;;;;;5054828;28;20437;-59
2022/05/08 10:57:59;;;;;;;10.73;7.13;;;17.90;59.60;;;;;;5051258;28;20941;-60
2022/05/08 11:00:26;;;;;;;9.80;7.33;;;17.80;59.10;;;;;;5037935;28;20579;-58
2022/05/08 11:02:57;;;;;;;13.23;7.10;;;17.80;58.60;;;;;;5056794;28;20428;-56
2022/05/08 11:05:37;;;;;;;17.97;7.00;;;17.80;58.60;;;;;;5053922;28;20457;-55
2022/05/08 11:08:11;;;;;;;11.73;7.30;;;17.70;58.10;;;;;;5052427;28;20508;-59
2022/05/08 11:10:41;;;;;;;9.73;6.67;;;17.70;57.60;;;;;;5054410;28;20469;-57
2022/05/08 11:13:10;;;;;;;6.43;5.70;;;17.50;57.30;;;;;;5035882;28;21039;-57
2022/05/08 11:15:43;;;;;;;9.60;7.33;;;17.30;56.90;;;;;;5054745;28;20466;-55
2022/05/08 11:18:09;;;;;;;7.97;7.00;;;17.20;57.30;;;;;;5033522;28;20460;-57
2022/05/08 11:20:39;;;;;;;10.77;6.93;;;17.10;57.80;;;;;;5048829;28;20878;-54
2022/05/08 11:23:05;;;;;;;9.60;7.43;;;17.10;58.40;;;;;;5049901;28;20460;-55
2022/05/08 11:25:33;;;;;;;8.27;6.57;;;17.00;58.60;;;;;;5052412;28;20442;-56
2022/05/08 11:27:59;;;;;;;8.90;7.00;;;17.00;58.50;;;;;;5056901;28;20518;-59
2022/05/08 11:30:35;;;;;;;10.27;7.90;;;16.90;58.10;;;;;;5057964;28;20441;-58
2022/05/08 11:36:06;;;;;;;8.70;6.93;;;16.80;58.90;;;;;;5057204;28;20463;-58
2022/05/08 11:38:42;;;;;;;7.43;6.43;;;16.70;59.10;;;;;;5060160;28;20956;-59
2022/05/08 11:41:19;;;;;;;7.53;5.80;;;16.70;59.30;;;;;;5062672;28;20432;-59
2022/05/08 11:43:47;;;;;;;7.10;6.40;;;16.60;59.20;;;;;;5054041;28;20490;-58
2022/05/08 11:46:17;;;;;;;6.90;6.20;;;16.50;59.30;;;;;;5057959;28;20456;-59
2022/05/08 11:48:46;;;;;;;8.70;6.03;;;16.50;59.50;;;;;;5038282;28;20444;-59
2022/05/08 11:51:14;;;;;;;8.90;6.33;;;16.50;59.70;;;;;;5060863;28;20435;-59
2022/05/08 11:53:45;;;;;;;7.60;6.87;;;16.50;60.10;;;;;;5055743;28;21020;-60
2022/05/08 11:56:43;;;;;;;10.43;7.17;;;16.50;60.90;;;;;;5040565;28;20833;-58
2022/05/08 11:59:17;;;;;;;8.20;7.30;;;16.60;61.60;;;;;;5006635;28;20532;-58
2022/05/08 12:01:51;;;;;;;7.77;6.97;;;16.70;61.80;;;;;;5054098;28;20524;-58
2022/05/08 12:04:31;;;;;;;7.73;6.87;;;16.90;62.60;;;;;;5054548;28;20437;-58
2022/05/08 12:07:00;;;;;;;8.10;5.97;;;17.10;62.90;;;;;;5049599;28;20472;-59
2022/05/08 12:09:39;;;;;;;7.37;6.60;;;17.20;62.60;;;;;;5055450;28;20916;-60
2022/05/08 12:12:29;;;;;;;9.23;6.13;;;17.40;61.60;;;;;;5056131;28;20435;-59
2022/05/08 12:15:06;;;;;;;17.73;6.00;;;17.80;62.20;;;;;;5053271;28;20508;-60
2022/05/08 12:17:44;;;;;;;6.60;6.00;;;18.20;61.60;;;;;;5050824;28;20467;-60
2022/05/08 12:20:27;;;;;;;7.17;6.47;;;18.50;60.50;;;;;;5043395;28;20436;-59
2022/05/08 12:23:07;;;;;;;5.77;5.17;;;18.50;59.60;;;;;;5054537;28;20471;-60
2022/05/08 12:25:34;;;;;;;7.80;4.20;;;18.50;58.70;;;;;;5052234;28;20439;-60
2022/05/08 12:28:00;;;;;;;4.17;3.30;;;18.50;57.00;;;;;;5059757;28;20547;-59
2022/05/08 12:30:26;;;;;;;5.10;4.60;;;18.30;55.40;;;;;;5107195;22;21466;-58
2022/05/08 12:32:52;;;;;;;8.30;5.07;;;18.20;55.40;;;;;;5094702;28;20455;-62
2022/05/08 12:35:19;;;;;;;5.37;4.87;;;18.00;56.10;;;;;;5079121;28;20256;-57
2022/05/08 12:37:47;;;;;;;6.03;5.30;;;17.90;56.10;;;;;;5095825;28;20170;-58
2022/05/08 12:40:15;;;;;;;5.80;5.30;;;17.70;56.70;;;;;;5086839;28;20450;-57
2022/05/08 12:42:41;;;;;;;8.53;5.77;;;17.60;57.10;;;;;;5071588;28;20459;-58
2022/05/08 12:45:07;;;;;;;6.67;5.20;;;17.40;57.70;;;;;;5073194;28;20446;-58
2022/05/08 12:47:33;;;;;;;8.50;6.33;;;17.30;58.20;;;;;;5072064;28;20495;-58
2022/05/08 12:49:59;;;;;;;7.90;7.10;;;17.10;59.10;;;;;;5079049;28;20481;-58
2022/05/08 12:52:25;;;;;;;16.77;8.27;;;17.10;60.20;;;;;;5082049;28;20394;-58
2022/05/08 12:54:51;;;;;;;9.63;8.40;;;16.90;60.90;;;;;;5074849;28;20169;-58
2022/05/08 13:00:01;;;;;;;12.83;7.87;;;16.60;62.50;;;;;;5074080;28;20501;-58
2022/05/08 13:02:27;;;;;;;10.30;8.80;;;16.50;63.70;;;;;;5076897;28;20432;-58
2022/05/08 13:04:53;;;;;;;10.47;7.93;;;16.30;64.70;;;;;;5072931;28;20625;-58
2022/05/08 13:07:19;;;;;;;8.47;7.67;;;16.20;65.50;;;;;;5075111;28;20271;-58
2022/05/08 13:09:45;;;;;;;11.87;8.43;;;16.10;66.50;;;;;;5077703;28;20450;-57
2022/05/08 13:12:10;;;;;;;13.37;8.77;;;16.00;67.30;;;;;;5074548;28;20178;-57
2022/05/08 13:14:36;;;;;;;11.30;8.50;;;15.90;69.10;;;;;;5076704;28;20374;-56
2022/05/08 13:17:03;;;;;;;10.97;8.47;;;15.80;72.30;;;;;;5074144;28;20631;-57